sensor_id;sensor_type;location;lat;lon;timestamp;P1;durP1;ratioP1;P2;durP2;ratioP2
6131;SDS011;3097;42.692;23.278;2023-06-10T00:00:15;8.47;;;7.63;;
6131;SDS011;3097;42.692;23.278;2023-06-10T00:02:41;8.80;;;7.93;;
6131;SDS011;3097;42.692;23.278;2023-06-10T00:05:07;8.20;;;7.33;;
6131;SDS011;3097;42.692;23.278;2023-06-10T00:07:34;8.10;;;7.30;;
6131;SDS011;3097;42.692;23.278;2023-06-10T00:10:03;7.93;;;7.13;;
6131;SDS011;3097;42.692;23.278;2023-06-10T00:12:32;8.80;;;7.60;;
6131;SDS011;3097;42.692;23.278;2023-06-10T00:15:02;7.37;;;6.77;;
6131;SDS011;3097;42.692;23.278;2023-06-10T00:17:28;7.57;;;6.87;;
6131;SDS011;3097;42.692;23.278;2023-06-10T00:19:54;7.63;;;6.83;;
6131;SDS011;3097;42.692;23.278;2023-06-10T00:22:20;6.53;;;6.03;;
6131;SDS011;3097;42.692;23.278;2023-06-10T00:24:47;10.73;;;6.63;;
6131;SDS011;3097;42.692;23.278;2023-06-10T00:27:12;7.97;;;6.87;;
6131;SDS011;3097;42.692;23.278;2023-06-10T00:29:38;7.93;;;7.20;;
6131;SDS011;3097;42.692;23.278;2023-06-10T00:32:04;10.90;;;7.50;;
6131;SDS011;3097;42.692;23.278;2023-06-10T00:34:30;11.37;;;8.40;;
6131;SDS011;3097;42.692;23.278;2023-06-10T00:36:55;11.60;;;10.27;;
6131;SDS011;3097;42.692;23.278;2023-06-10T00:39:21;10.73;;;9.57;;
6131;SDS011;3097;42.692;23.278;2023-06-10T00:41:46;10.23;;;9.03;;
6131;SDS011;3097;42.692;23.278;2023-06-10T00:44:11;11.13;;;9.03;;
6131;SDS011;3097;42.692;23.278;2023-06-10T00:46:37;10.93;;;8.90;;
6131;SDS011;3097;42.692;23.278;2023-06-10T00:49:03;11.77;;;8.67;;
6131;SDS011;3097;42.692;23.278;2023-06-10T00:51:29;9.20;;;8.10;;
6131;SDS011;3097;42.692;23.278;2023-06-10T00:53:54;11.60;;;8.67;;
6131;SDS011;3097;42.692;23.278;2023-06-10T00:56:20;9.30;;;8.40;;
6131;SDS011;3097;42.692;23.278;2023-06-10T00:58:46;11.13;;;8.90;;
6131;SDS011;3097;42.692;23.278;2023-06-10T01:01:12;11.87;;;8.23;;
6131;SDS011;3097;42.692;23.278;2023-06-10T01:03:38;11.60;;;8.53;;
6131;SDS011;3097;42.692;23.278;2023-06-10T01:06:29;10.43;;;9.33;;
6131;SDS011;3097;42.692;23.278;2023-06-10T01:12:05;10.13;;;8.90;;
6131;SDS011;3097;42.692;23.278;2023-06-10T01:14:36;9.67;;;8.77;;
6131;SDS011;3097;42.692;23.278;2023-06-10T01:17:03;8.67;;;7.70;;
6131;SDS011;3097;42.692;23.278;2023-06-10T01:19:30;8.83;;;8.10;;
6131;SDS011;3097;42.692;23.278;2023-06-10T01:21:57;9.43;;;8.53;;
6131;SDS011;3097;42.692;23.278;2023-06-10T01:24:25;8.93;;;8.00;;
6131;SDS011;3097;42.692;23.278;2023-06-10T01:26:51;8.53;;;7.83;;
6131;SDS011;3097;42.692;23.278;2023-06-10T01:29:26;9.47;;;8.00;;
6131;SDS011;3097;42.692;23.278;2023-06-10T01:34:24;9.47;;;8.53;;
6131;SDS011;3097;42.692;23.278;2023-06-10T01:36:51;9.03;;;7.27;;
6131;SDS011;3097;42.692;23.278;2023-06-10T01:39:20;8.23;;;7.53;;
6131;SDS011;3097;42.692;23.278;2023-06-10T01:41:47;9.13;;;8.10;;
6131;SDS011;3097;42.692;23.278;2023-06-10T01:44:17;8.97;;;8.23;;
6131;SDS011;3097;42.692;23.278;2023-06-10T01:46:43;9.17;;;8.27;;
6131;SDS011;3097;42.692;23.278;2023-06-10T01:49:09;11.20;;;7.40;;
6131;SDS011;3097;42.692;23.278;2023-06-10T01:51:34;9.00;;;8.10;;
6131;SDS011;3097;42.692;23.278;2023-06-10T01:53:59;8.23;;;7.43;;
6131;SDS011;3097;42.692;23.278;2023-06-10T01:56:25;10.00;;;7.20;;
6131;SDS011;3097;42.692;23.278;2023-06-10T01:58:50;8.67;;;7.90;;
6131;SDS011;3097;42.692;23.278;2023-06-10T02:03:51;9.00;;;7.90;;
6131;SDS011;3097;42.692;23.278;2023-06-10T02:06:16;9.23;;;8.30;;
6131;SDS011;3097;42.692;23.278;2023-06-10T02:08:42;12.77;;;7.97;;
6131;SDS011;3097;42.692;23.278;2023-06-10T02:11:07;8.37;;;7.20;;
6131;SDS011;3097;42.692;23.278;2023-06-10T02:13:33;9.07;;;8.03;;
6131;SDS011;3097;42.692;23.278;2023-06-10T02:15:59;9.63;;;8.03;;
6131;SDS011;3097;42.692;23.278;2023-06-10T02:18:25;11.77;;;7.33;;
6131;SDS011;3097;42.692;23.278;2023-06-10T02:20:52;8.13;;;7.33;;
6131;SDS011;3097;42.692;23.278;2023-06-10T02:23:17;9.00;;;7.17;;
6131;SDS011;3097;42.692;23.278;2023-06-10T02:25:43;8.63;;;7.83;;
6131;SDS011;3097;42.692;23.278;2023-06-10T02:28:08;8.37;;;7.50;;
6131;SDS011;3097;42.692;23.278;2023-06-10T02:30:34;11.27;;;7.87;;
6131;SDS011;3097;42.692;23.278;2023-06-10T02:32:59;9.33;;;8.10;;
6131;SDS011;3097;42.692;23.278;2023-06-10T02:35:26;10.73;;;7.70;;
6131;SDS011;3097;42.692;23.278;2023-06-10T02:37:51;8.60;;;7.80;;
6131;SDS011;3097;42.692;23.278;2023-06-10T02:40:17;8.60;;;7.23;;
6131;SDS011;3097;42.692;23.278;2023-06-10T02:42:42;8.97;;;7.97;;
6131;SDS011;3097;42.692;23.278;2023-06-10T02:45:08;11.33;;;7.90;;
6131;SDS011;3097;42.692;23.278;2023-06-10T02:47:33;7.87;;;7.27;;
6131;SDS011;3097;42.692;23.278;2023-06-10T02:49:59;8.93;;;7.13;;
6131;SDS011;3097;42.692;23.278;2023-06-10T02:52:24;8.30;;;7.50;;
6131;SDS011;3097;42.692;23.278;2023-06-10T02:54:50;8.73;;;7.93;;
6131;SDS011;3097;42.692;23.278;2023-06-10T02:57:15;11.30;;;8.10;;
6131;SDS011;3097;42.692;23.278;2023-06-10T02:59:40;9.10;;;8.20;;
6131;SDS011;3097;42.692;23.278;2023-06-10T03:02:06;10.97;;;7.90;;
6131;SDS011;3097;42.692;23.278;2023-06-10T03:04:32;9.43;;;7.90;;
6131;SDS011;3097;42.692;23.278;2023-06-10T03:06:58;9.70;;;8.77;;
6131;SDS011;3097;42.692;23.278;2023-06-10T03:09:25;12.43;;;9.27;;
6131;SDS011;3097;42.692;23.278;2023-06-10T03:11:51;16.77;;;10.23;;
6131;SDS011;3097;42.692;23.278;2023-06-10T03:14:16;24.27;;;11.87;;
6131;SDS011;3097;42.692;23.278;2023-06-10T03:16:41;21.00;;;12.60;;
6131;SDS011;3097;42.692;23.278;2023-06-10T03:19:07;25.10;;;13.53;;
6131;SDS011;3097;42.692;23.278;2023-06-10T03:21:34;19.97;;;12.67;;
6131;SDS011;3097;42.692;23.278;2023-06-10T03:24:00;12.97;;;10.60;;
6131;SDS011;3097;42.692;23.278;2023-06-10T03:26:26;13.60;;;9.93;;
6131;SDS011;3097;42.692;23.278;2023-06-10T03:28:52;10.60;;;9.20;;
6131;SDS011;3097;42.692;23.278;2023-06-10T03:31:18;11.03;;;9.07;;
6131;SDS011;3097;42.692;23.278;2023-06-10T03:33:43;10.43;;;8.57;;
6131;SDS011;3097;42.692;23.278;2023-06-10T03:36:09;12.37;;;8.57;;
6131;SDS011;3097;42.692;23.278;2023-06-10T03:38:34;12.87;;;9.03;;
6131;SDS011;3097;42.692;23.278;2023-06-10T03:41:00;10.77;;;9.10;;
6131;SDS011;3097;42.692;23.278;2023-06-10T03:43:26;10.67;;;8.90;;
6131;SDS011;3097;42.692;23.278;2023-06-10T03:45:52;12.10;;;9.40;;
6131;SDS011;3097;42.692;23.278;2023-06-10T03:48:18;10.87;;;8.93;;
6131;SDS011;3097;42.692;23.278;2023-06-10T03:50:43;11.70;;;9.57;;
6131;SDS011;3097;42.692;23.278;2023-06-10T03:53:09;10.03;;;9.00;;
6131;SDS011;3097;42.692;23.278;2023-06-10T03:55:34;11.03;;;8.93;;
6131;SDS011;3097;42.692;23.278;2023-06-10T03:58:01;8.87;;;7.97;;
6131;SDS011;3097;42.692;23.278;2023-06-10T04:00:27;10.33;;;8.73;;
6131;SDS011;3097;42.692;23.278;2023-06-10T04:02:53;9.40;;;8.53;;
6131;SDS011;3097;42.692;23.278;2023-06-10T04:05:23;10.43;;;8.10;;
6131;SDS011;3097;42.692;23.278;2023-06-10T04:07:48;10.20;;;8.70;;
6131;SDS011;3097;42.692;23.278;2023-06-10T04:10:14;10.23;;;8.20;;
6131;SDS011;3097;42.692;23.278;2023-06-10T04:12:40;9.83;;;8.83;;
6131;SDS011;3097;42.692;23.278;2023-06-10T04:15:06;9.77;;;8.77;;
6131;SDS011;3097;42.692;23.278;2023-06-10T04:17:32;9.37;;;8.37;;
6131;SDS011;3097;42.692;23.278;2023-06-10T04:19:58;10.30;;;9.20;;
6131;SDS011;3097;42.692;23.278;2023-06-10T04:22:23;9.47;;;8.57;;
6131;SDS011;3097;42.692;23.278;2023-06-10T04:24:49;10.93;;;8.90;;
6131;SDS011;3097;42.692;23.278;2023-06-10T04:27:15;9.47;;;8.37;;
6131;SDS011;3097;42.692;23.278;2023-06-10T04:29:40;8.80;;;7.90;;
6131;SDS011;3097;42.692;23.278;2023-06-10T04:32:06;11.10;;;8.30;;
6131;SDS011;3097;42.692;23.278;2023-06-10T04:34:36;9.30;;;8.40;;
6131;SDS011;3097;42.692;23.278;2023-06-10T04:37:04;11.77;;;8.27;;
6131;SDS011;3097;42.692;23.278;2023-06-10T04:39:30;8.43;;;7.63;;
6131;SDS011;3097;42.692;23.278;2023-06-10T04:41:55;10.33;;;8.07;;
6131;SDS011;3097;42.692;23.278;2023-06-10T04:44:21;8.63;;;7.73;;
6131;SDS011;3097;42.692;23.278;2023-06-10T04:46:46;8.77;;;7.80;;
6131;SDS011;3097;42.692;23.278;2023-06-10T04:49:13;9.57;;;7.57;;
6131;SDS011;3097;42.692;23.278;2023-06-10T04:51:40;9.73;;;8.47;;
6131;SDS011;3097;42.692;23.278;2023-06-10T04:54:05;12.30;;;8.30;;
6131;SDS011;3097;42.692;23.278;2023-06-10T04:56:31;10.07;;;8.73;;
6131;SDS011;3097;42.692;23.278;2023-06-10T04:58:57;9.83;;;8.60;;
6131;SDS011;3097;42.692;23.278;2023-06-10T05:01:23;10.10;;;8.63;;
6131;SDS011;3097;42.692;23.278;2023-06-10T05:03:48;9.00;;;8.20;;
6131;SDS011;3097;42.692;23.278;2023-06-10T05:06:14;9.40;;;8.40;;
6131;SDS011;3097;42.692;23.278;2023-06-10T05:08:40;9.23;;;8.33;;
6131;SDS011;3097;42.692;23.278;2023-06-10T05:11:05;9.77;;;8.77;;
6131;SDS011;3097;42.692;23.278;2023-06-10T05:13:31;11.47;;;9.43;;
6131;SDS011;3097;42.692;23.278;2023-06-10T05:15:57;16.57;;;12.53;;
6131;SDS011;3097;42.692;23.278;2023-06-10T05:18:22;14.97;;;13.07;;
6131;SDS011;3097;42.692;23.278;2023-06-10T05:20:47;13.93;;;12.53;;
6131;SDS011;3097;42.692;23.278;2023-06-10T05:23:14;30.67;;;21.40;;
6131;SDS011;3097;42.692;23.278;2023-06-10T05:25:40;19.73;;;15.50;;
6131;SDS011;3097;42.692;23.278;2023-06-10T05:28:06;16.97;;;14.33;;
6131;SDS011;3097;42.692;23.278;2023-06-10T05:30:35;26.53;;;19.07;;
6131;SDS011;3097;42.692;23.278;2023-06-10T05:33:03;30.70;;;21.80;;
6131;SDS011;3097;42.692;23.278;2023-06-10T05:35:29;39.67;;;28.17;;
6131;SDS011;3097;42.692;23.278;2023-06-10T05:37:55;24.87;;;17.80;;
6131;SDS011;3097;42.692;23.278;2023-06-10T05:40:20;24.60;;;17.03;;
6131;SDS011;3097;42.692;23.278;2023-06-10T05:42:46;13.10;;;11.70;;
6131;SDS011;3097;42.692;23.278;2023-06-10T05:45:11;10.93;;;9.30;;
6131;SDS011;3097;42.692;23.278;2023-06-10T05:47:37;8.43;;;6.60;;
6131;SDS011;3097;42.692;23.278;2023-06-10T05:50:02;7.43;;;6.83;;
6131;SDS011;3097;42.692;23.278;2023-06-10T05:52:32;7.87;;;7.17;;
6131;SDS011;3097;42.692;23.278;2023-06-10T05:54:58;8.30;;;7.10;;
6131;SDS011;3097;42.692;23.278;2023-06-10T05:57:24;7.70;;;6.67;;
6131;SDS011;3097;42.692;23.278;2023-06-10T05:59:50;7.67;;;6.73;;
6131;SDS011;3097;42.692;23.278;2023-06-10T06:02:15;6.37;;;5.77;;
6131;SDS011;3097;42.692;23.278;2023-06-10T06:04:41;6.83;;;6.33;;
6131;SDS011;3097;42.692;23.278;2023-06-10T06:07:06;6.70;;;6.17;;
6131;SDS011;3097;42.692;23.278;2023-06-10T06:09:31;7.20;;;6.50;;
6131;SDS011;3097;42.692;23.278;2023-06-10T06:11:57;20.60;;;14.93;;
6131;SDS011;3097;42.692;23.278;2023-06-10T06:14:22;7.90;;;7.13;;
6131;SDS011;3097;42.692;23.278;2023-06-10T06:16:51;8.07;;;6.80;;
6131;SDS011;3097;42.692;23.278;2023-06-10T06:19:16;6.80;;;6.07;;
6131;SDS011;3097;42.692;23.278;2023-06-10T06:21:42;7.43;;;6.70;;
6131;SDS011;3097;42.692;23.278;2023-06-10T06:24:07;7.70;;;6.87;;
6131;SDS011;3097;42.692;23.278;2023-06-10T06:26:33;7.20;;;6.60;;
6131;SDS011;3097;42.692;23.278;2023-06-10T06:28:58;8.33;;;6.53;;
6131;SDS011;3097;42.692;23.278;2023-06-10T06:31:23;11.10;;;7.13;;
6131;SDS011;3097;42.692;23.278;2023-06-10T06:33:49;7.00;;;6.40;;
6131;SDS011;3097;42.692;23.278;2023-06-10T06:36:14;7.63;;;6.90;;
6131;SDS011;3097;42.692;23.278;2023-06-10T06:38:40;7.73;;;7.03;;
6131;SDS011;3097;42.692;23.278;2023-06-10T06:41:05;7.73;;;7.03;;
6131;SDS011;3097;42.692;23.278;2023-06-10T06:43:31;8.83;;;7.93;;
6131;SDS011;3097;42.692;23.278;2023-06-10T06:45:57;8.33;;;7.53;;
6131;SDS011;3097;42.692;23.278;2023-06-10T06:48:23;10.37;;;7.47;;
6131;SDS011;3097;42.692;23.278;2023-06-10T06:50:49;8.23;;;7.40;;
6131;SDS011;3097;42.692;23.278;2023-06-10T06:53:15;7.97;;;7.27;;
6131;SDS011;3097;42.692;23.278;2023-06-10T06:55:40;7.60;;;6.80;;
6131;SDS011;3097;42.692;23.278;2023-06-10T06:58:05;8.00;;;7.10;;
6131;SDS011;3097;42.692;23.278;2023-06-10T07:00:31;7.73;;;7.03;;
6131;SDS011;3097;42.692;23.278;2023-06-10T07:02:57;8.03;;;7.03;;
6131;SDS011;3097;42.692;23.278;2023-06-10T07:05:23;7.30;;;6.70;;
6131;SDS011;3097;42.692;23.278;2023-06-10T07:07:52;6.33;;;5.73;;
6131;SDS011;3097;42.692;23.278;2023-06-10T07:10:21;10.67;;;6.10;;
6131;SDS011;3097;42.692;23.278;2023-06-10T07:12:47;6.60;;;6.03;;
6131;SDS011;3097;42.692;23.278;2023-06-10T07:15:13;6.70;;;6.10;;
6131;SDS011;3097;42.692;23.278;2023-06-10T07:17:38;6.83;;;6.33;;
6131;SDS011;3097;42.692;23.278;2023-06-10T07:20:04;6.77;;;6.17;;
6131;SDS011;3097;42.692;23.278;2023-06-10T07:22:30;5.90;;;5.40;;
6131;SDS011;3097;42.692;23.278;2023-06-10T07:24:56;5.37;;;5.00;;
6131;SDS011;3097;42.692;23.278;2023-06-10T07:27:21;5.73;;;5.23;;
6131;SDS011;3097;42.692;23.278;2023-06-10T07:29:47;5.83;;;5.43;;
6131;SDS011;3097;42.692;23.278;2023-06-10T07:32:15;5.80;;;5.40;;
6131;SDS011;3097;42.692;23.278;2023-06-10T07:34:40;5.27;;;4.97;;
6131;SDS011;3097;42.692;23.278;2023-06-10T07:37:06;5.40;;;4.97;;
6131;SDS011;3097;42.692;23.278;2023-06-10T07:39:31;5.13;;;4.70;;
6131;SDS011;3097;42.692;23.278;2023-06-10T07:41:56;5.03;;;4.63;;
6131;SDS011;3097;42.692;23.278;2023-06-10T07:44:22;5.70;;;5.20;;
6131;SDS011;3097;42.692;23.278;2023-06-10T07:46:48;4.97;;;4.67;;
6131;SDS011;3097;42.692;23.278;2023-06-10T07:49:14;8.20;;;7.00;;
6131;SDS011;3097;42.692;23.278;2023-06-10T07:51:39;5.00;;;4.50;;
6131;SDS011;3097;42.692;23.278;2023-06-10T07:54:05;6.03;;;5.30;;
6131;SDS011;3097;42.692;23.278;2023-06-10T07:56:30;5.27;;;4.90;;
6131;SDS011;3097;42.692;23.278;2023-06-10T07:58:56;6.00;;;5.13;;
6131;SDS011;3097;42.692;23.278;2023-06-10T08:01:22;5.47;;;5.10;;
6131;SDS011;3097;42.692;23.278;2023-06-10T08:03:48;6.23;;;5.70;;
6131;SDS011;3097;42.692;23.278;2023-06-10T08:06:13;5.67;;;5.27;;
6131;SDS011;3097;42.692;23.278;2023-06-10T08:08:39;5.13;;;4.83;;
6131;SDS011;3097;42.692;23.278;2023-06-10T08:11:09;5.10;;;4.80;;
6131;SDS011;3097;42.692;23.278;2023-06-10T08:13:38;5.50;;;5.00;;
6131;SDS011;3097;42.692;23.278;2023-06-10T08:16:04;5.60;;;5.20;;
6131;SDS011;3097;42.692;23.278;2023-06-10T08:18:30;6.40;;;5.50;;
6131;SDS011;3097;42.692;23.278;2023-06-10T08:20:55;5.13;;;4.73;;
6131;SDS011;3097;42.692;23.278;2023-06-10T08:23:21;5.23;;;4.90;;
6131;SDS011;3097;42.692;23.278;2023-06-10T08:25:46;5.80;;;5.30;;
6131;SDS011;3097;42.692;23.278;2023-06-10T08:28:12;5.93;;;5.30;;
6131;SDS011;3097;42.692;23.278;2023-06-10T08:30:37;5.20;;;4.80;;
6131;SDS011;3097;42.692;23.278;2023-06-10T08:33:03;7.30;;;4.30;;
6131;SDS011;3097;42.692;23.278;2023-06-10T08:35:28;5.50;;;5.00;;
6131;SDS011;3097;42.692;23.278;2023-06-10T08:37:54;4.93;;;4.60;;
6131;SDS011;3097;42.692;23.278;2023-06-10T08:40:19;4.70;;;4.30;;
6131;SDS011;3097;42.692;23.278;2023-06-10T08:43:00;4.50;;;4.20;;
6131;SDS011;3097;42.692;23.278;2023-06-10T08:45:32;4.90;;;4.40;;
6131;SDS011;3097;42.692;23.278;2023-06-10T08:48:02;5.00;;;4.50;;
6131;SDS011;3097;42.692;23.278;2023-06-10T08:50:35;4.17;;;3.87;;
6131;SDS011;3097;42.692;23.278;2023-06-10T08:53:04;4.13;;;3.77;;
6131;SDS011;3097;42.692;23.278;2023-06-10T08:55:37;4.37;;;3.43;;
6131;SDS011;3097;42.692;23.278;2023-06-10T08:58:06;3.03;;;2.90;;
6131;SDS011;3097;42.692;23.278;2023-06-10T09:00:32;5.10;;;4.60;;
6131;SDS011;3097;42.692;23.278;2023-06-10T09:02:59;4.23;;;3.90;;
6131;SDS011;3097;42.692;23.278;2023-06-10T09:05:26;4.00;;;3.80;;
6131;SDS011;3097;42.692;23.278;2023-06-10T09:07:52;4.40;;;4.10;;
6131;SDS011;3097;42.692;23.278;2023-06-10T09:10:18;4.00;;;3.80;;
6131;SDS011;3097;42.692;23.278;2023-06-10T09:12:43;4.80;;;4.37;;
6131;SDS011;3097;42.692;23.278;2023-06-10T09:15:09;4.90;;;4.50;;
6131;SDS011;3097;42.692;23.278;2023-06-10T09:17:36;4.87;;;4.57;;
6131;SDS011;3097;42.692;23.278;2023-06-10T09:20:03;4.30;;;4.00;;
6131;SDS011;3097;42.692;23.278;2023-06-10T09:22:29;5.00;;;4.50;;
6131;SDS011;3097;42.692;23.278;2023-06-10T09:25:04;4.20;;;3.90;;
6131;SDS011;3097;42.692;23.278;2023-06-10T09:27:44;4.10;;;3.90;;
6131;SDS011;3097;42.692;23.278;2023-06-10T09:30:11;4.30;;;4.00;;
6131;SDS011;3097;42.692;23.278;2023-06-10T09:32:50;3.87;;;3.67;;
6131;SDS011;3097;42.692;23.278;2023-06-10T09:35:16;4.50;;;3.53;;
6131;SDS011;3097;42.692;23.278;2023-06-10T09:37:41;4.60;;;4.30;;
6131;SDS011;3097;42.692;23.278;2023-06-10T09:40:09;4.70;;;4.40;;
6131;SDS011;3097;42.692;23.278;2023-06-10T09:42:39;4.60;;;4.30;;
6131;SDS011;3097;42.692;23.278;2023-06-10T09:45:05;4.80;;;4.50;;
6131;SDS011;3097;42.692;23.278;2023-06-10T09:47:31;5.07;;;4.77;;
6131;SDS011;3097;42.692;23.278;2023-06-10T09:49:57;5.30;;;4.90;;
6131;SDS011;3097;42.692;23.278;2023-06-10T09:52:23;4.87;;;4.50;;
6131;SDS011;3097;42.692;23.278;2023-06-10T09:54:53;5.00;;;4.70;;
6131;SDS011;3097;42.692;23.278;2023-06-10T09:57:26;5.00;;;4.70;;
6131;SDS011;3097;42.692;23.278;2023-06-10T09:59:57;4.87;;;4.47;;
6131;SDS011;3097;42.692;23.278;2023-06-10T10:02:22;3.93;;;3.63;;
6131;SDS011;3097;42.692;23.278;2023-06-10T10:04:48;4.10;;;3.87;;
6131;SDS011;3097;42.692;23.278;2023-06-10T10:07:13;4.57;;;4.17;;
6131;SDS011;3097;42.692;23.278;2023-06-10T10:09:39;5.80;;;5.40;;
6131;SDS011;3097;42.692;23.278;2023-06-10T10:12:08;4.37;;;4.07;;
6131;SDS011;3097;42.692;23.278;2023-06-10T10:14:36;4.03;;;3.73;;
6131;SDS011;3097;42.692;23.278;2023-06-10T10:17:04;4.70;;;4.40;;
6131;SDS011;3097;42.692;23.278;2023-06-10T10:19:36;4.43;;;4.00;;
6131;SDS011;3097;42.692;23.278;2023-06-10T10:22:10;4.50;;;4.20;;
6131;SDS011;3097;42.692;23.278;2023-06-10T10:24:49;4.07;;;3.73;;
6131;SDS011;3097;42.692;23.278;2023-06-10T10:27:18;4.90;;;4.50;;
6131;SDS011;3097;42.692;23.278;2023-06-10T10:29:51;4.43;;;4.00;;
6131;SDS011;3097;42.692;23.278;2023-06-10T10:32:18;4.00;;;3.80;;
6131;SDS011;3097;42.692;23.278;2023-06-10T10:35:07;3.87;;;3.67;;
6131;SDS011;3097;42.692;23.278;2023-06-10T10:37:35;3.90;;;3.67;;
6131;SDS011;3097;42.692;23.278;2023-06-10T10:40:01;4.27;;;3.97;;
6131;SDS011;3097;42.692;23.278;2023-06-10T10:42:28;4.20;;;3.90;;
6131;SDS011;3097;42.692;23.278;2023-06-10T10:44:54;4.07;;;3.77;;
6131;SDS011;3097;42.692;23.278;2023-06-10T10:47:21;4.20;;;3.90;;
6131;SDS011;3097;42.692;23.278;2023-06-10T10:49:48;4.10;;;3.80;;
6131;SDS011;3097;42.692;23.278;2023-06-10T10:52:19;4.37;;;3.53;;
6131;SDS011;3097;42.692;23.278;2023-06-10T10:54:46;3.63;;;3.43;;
6131;SDS011;3097;42.692;23.278;2023-06-10T10:57:13;3.40;;;3.20;;
6131;SDS011;3097;42.692;23.278;2023-06-10T10:59:43;3.57;;;3.30;;
6131;SDS011;3097;42.692;23.278;2023-06-10T11:05:03;3.50;;;3.30;;
6131;SDS011;3097;42.692;23.278;2023-06-10T11:07:30;3.50;;;3.30;;
6131;SDS011;3097;42.692;23.278;2023-06-10T11:10:10;3.27;;;3.07;;
6131;SDS011;3097;42.692;23.278;2023-06-10T11:12:41;3.37;;;3.17;;
6131;SDS011;3097;42.692;23.278;2023-06-10T11:15:07;3.30;;;3.10;;
6131;SDS011;3097;42.692;23.278;2023-06-10T11:17:33;4.87;;;4.47;;
6131;SDS011;3097;42.692;23.278;2023-06-10T11:19:58;4.20;;;3.90;;
6131;SDS011;3097;42.692;23.278;2023-06-10T11:22:24;4.73;;;4.33;;
6131;SDS011;3097;42.692;23.278;2023-06-10T11:24:50;4.50;;;4.10;;
6131;SDS011;3097;42.692;23.278;2023-06-10T11:27:17;8.67;;;7.87;;
6131;SDS011;3097;42.692;23.278;2023-06-10T11:29:58;14.77;;;9.50;;
6131;SDS011;3097;42.692;23.278;2023-06-10T11:32:43;5.70;;;5.30;;
6131;SDS011;3097;42.692;23.278;2023-06-10T11:35:09;7.80;;;7.10;;
6131;SDS011;3097;42.692;23.278;2023-06-10T11:37:35;4.90;;;4.60;;
6131;SDS011;3097;42.692;23.278;2023-06-10T11:40:01;4.30;;;4.00;;
6131;SDS011;3097;42.692;23.278;2023-06-10T11:42:27;5.27;;;4.87;;
6131;SDS011;3097;42.692;23.278;2023-06-10T11:44:53;4.63;;;4.30;;
6131;SDS011;3097;42.692;23.278;2023-06-10T11:47:19;4.60;;;4.30;;
6131;SDS011;3097;42.692;23.278;2023-06-10T11:49:45;5.30;;;4.90;;
6131;SDS011;3097;42.692;23.278;2023-06-10T11:52:26;5.17;;;4.87;;
6131;SDS011;3097;42.692;23.278;2023-06-10T11:54:57;6.47;;;4.30;;
6131;SDS011;3097;42.692;23.278;2023-06-10T11:57:22;4.73;;;4.43;;
6131;SDS011;3097;42.692;23.278;2023-06-10T11:59:48;5.07;;;4.77;;
6131;SDS011;3097;42.692;23.278;2023-06-10T12:02:16;5.07;;;4.60;;
6131;SDS011;3097;42.692;23.278;2023-06-10T12:04:42;5.10;;;4.43;;
6131;SDS011;3097;42.692;23.278;2023-06-10T12:07:08;5.70;;;4.67;;
6131;SDS011;3097;42.692;23.278;2023-06-10T12:09:33;5.10;;;4.70;;
6131;SDS011;3097;42.692;23.278;2023-06-10T12:11:59;4.23;;;3.93;;
6131;SDS011;3097;42.692;23.278;2023-06-10T12:19:56;7.87;;;7.10;;
6131;SDS011;3097;42.692;23.278;2023-06-10T12:22:23;4.37;;;4.07;;
6131;SDS011;3097;42.692;23.278;2023-06-10T12:24:59;5.30;;;4.90;;
6131;SDS011;3097;42.692;23.278;2023-06-10T12:27:26;4.50;;;4.20;;
6131;SDS011;3097;42.692;23.278;2023-06-10T12:29:55;4.40;;;4.10;;
6131;SDS011;3097;42.692;23.278;2023-06-10T12:32:34;8.00;;;7.30;;
6131;SDS011;3097;42.692;23.278;2023-06-10T12:35:03;4.63;;;4.23;;
6131;SDS011;3097;42.692;23.278;2023-06-10T12:37:29;4.87;;;4.47;;
6131;SDS011;3097;42.692;23.278;2023-06-10T12:39:55;5.67;;;5.27;;
6131;SDS011;3097;42.692;23.278;2023-06-10T12:42:24;4.17;;;3.97;;
6131;SDS011;3097;42.692;23.278;2023-06-10T12:44:53;7.10;;;4.00;;
6131;SDS011;3097;42.692;23.278;2023-06-10T12:47:19;4.40;;;4.10;;
6131;SDS011;3097;42.692;23.278;2023-06-10T12:49:44;4.80;;;4.40;;
6131;SDS011;3097;42.692;23.278;2023-06-10T12:52:10;3.70;;;3.50;;
6131;SDS011;3097;42.692;23.278;2023-06-10T12:54:35;4.47;;;4.17;;
6131;SDS011;3097;42.692;23.278;2023-06-10T12:57:01;6.63;;;6.07;;
6131;SDS011;3097;42.692;23.278;2023-06-10T12:59:27;4.83;;;4.53;;
6131;SDS011;3097;42.692;23.278;2023-06-10T13:01:53;4.00;;;3.67;;
6131;SDS011;3097;42.692;23.278;2023-06-10T13:04:19;3.90;;;3.60;;
6131;SDS011;3097;42.692;23.278;2023-06-10T13:06:46;5.73;;;5.20;;
6131;SDS011;3097;42.692;23.278;2023-06-10T13:09:14;4.30;;;4.00;;
6131;SDS011;3097;42.692;23.278;2023-06-10T13:11:40;5.27;;;4.80;;
6131;SDS011;3097;42.692;23.278;2023-06-10T13:14:07;5.70;;;4.77;;
6131;SDS011;3097;42.692;23.278;2023-06-10T13:16:33;5.40;;;4.03;;
6131;SDS011;3097;42.692;23.278;2023-06-10T13:18:59;5.80;;;4.40;;
6131;SDS011;3097;42.692;23.278;2023-06-10T13:21:26;5.00;;;4.60;;
6131;SDS011;3097;42.692;23.278;2023-06-10T13:23:52;5.10;;;4.60;;
6131;SDS011;3097;42.692;23.278;2023-06-10T13:26:17;5.50;;;4.73;;
6131;SDS011;3097;42.692;23.278;2023-06-10T13:28:43;5.03;;;4.63;;
6131;SDS011;3097;42.692;23.278;2023-06-10T13:31:09;5.40;;;5.00;;
6131;SDS011;3097;42.692;23.278;2023-06-10T13:33:35;5.00;;;4.60;;
6131;SDS011;3097;42.692;23.278;2023-06-10T13:36:00;5.07;;;4.57;;
6131;SDS011;3097;42.692;23.278;2023-06-10T13:38:26;5.57;;;5.00;;
6131;SDS011;3097;42.692;23.278;2023-06-10T13:40:51;5.37;;;4.87;;
6131;SDS011;3097;42.692;23.278;2023-06-10T13:43:16;6.67;;;5.43;;
6131;SDS011;3097;42.692;23.278;2023-06-10T13:45:42;5.80;;;5.30;;
6131;SDS011;3097;42.692;23.278;2023-06-10T13:48:07;5.90;;;5.40;;
6131;SDS011;3097;42.692;23.278;2023-06-10T13:50:33;5.80;;;5.30;;
6131;SDS011;3097;42.692;23.278;2023-06-10T13:52:59;5.63;;;5.23;;
6131;SDS011;3097;42.692;23.278;2023-06-10T13:55:24;7.93;;;7.23;;
6131;SDS011;3097;42.692;23.278;2023-06-10T13:57:50;6.40;;;5.80;;
6131;SDS011;3097;42.692;23.278;2023-06-10T14:00:16;7.17;;;5.87;;
6131;SDS011;3097;42.692;23.278;2023-06-10T14:02:42;6.03;;;5.53;;
6131;SDS011;3097;42.692;23.278;2023-06-10T14:05:07;7.63;;;5.90;;
6131;SDS011;3097;42.692;23.278;2023-06-10T14:07:33;5.67;;;5.17;;
6131;SDS011;3097;42.692;23.278;2023-06-10T14:09:59;5.50;;;5.00;;
6131;SDS011;3097;42.692;23.278;2023-06-10T14:12:25;5.07;;;4.67;;
6131;SDS011;3097;42.692;23.278;2023-06-10T14:14:50;6.00;;;4.87;;
6131;SDS011;3097;42.692;23.278;2023-06-10T14:17:15;5.83;;;5.20;;
6131;SDS011;3097;42.692;23.278;2023-06-10T14:19:41;5.20;;;4.70;;
6131;SDS011;3097;42.692;23.278;2023-06-10T14:22:06;5.30;;;4.90;;
6131;SDS011;3097;42.692;23.278;2023-06-10T14:24:32;4.93;;;4.53;;
6131;SDS011;3097;42.692;23.278;2023-06-10T14:26:58;5.23;;;4.73;;
6131;SDS011;3097;42.692;23.278;2023-06-10T14:29:23;5.57;;;4.50;;
6131;SDS011;3097;42.692;23.278;2023-06-10T14:31:49;4.83;;;4.43;;
6131;SDS011;3097;42.692;23.278;2023-06-10T14:34:14;5.17;;;4.77;;
6131;SDS011;3097;42.692;23.278;2023-06-10T14:36:40;4.70;;;4.40;;
6131;SDS011;3097;42.692;23.278;2023-06-10T14:39:07;6.23;;;4.27;;
6131;SDS011;3097;42.692;23.278;2023-06-10T14:41:32;5.77;;;4.57;;
6131;SDS011;3097;42.692;23.278;2023-06-10T14:43:58;5.03;;;4.50;;
6131;SDS011;3097;42.692;23.278;2023-06-10T14:46:23;5.40;;;4.77;;
6131;SDS011;3097;42.692;23.278;2023-06-10T14:48:49;4.77;;;4.37;;
6131;SDS011;3097;42.692;23.278;2023-06-10T14:51:15;5.83;;;4.33;;
6131;SDS011;3097;42.692;23.278;2023-06-10T14:53:40;7.00;;;4.40;;
6131;SDS011;3097;42.692;23.278;2023-06-10T14:56:06;4.90;;;4.60;;
6131;SDS011;3097;42.692;23.278;2023-06-10T14:58:31;4.67;;;4.20;;
6131;SDS011;3097;42.692;23.278;2023-06-10T15:00:57;6.13;;;4.20;;
6131;SDS011;3097;42.692;23.278;2023-06-10T15:03:22;4.80;;;4.50;;
6131;SDS011;3097;42.692;23.278;2023-06-10T15:05:47;4.83;;;4.43;;
6131;SDS011;3097;42.692;23.278;2023-06-10T15:08:13;5.37;;;4.97;;
6131;SDS011;3097;42.692;23.278;2023-06-10T15:10:38;5.10;;;4.70;;